createdAt,value
2023-05-14T00:00:25.662Z,101910.78
2023-05-14T00:02:52.722Z,101914.94
2023-05-14T00:05:19.636Z,101916.56
2023-05-14T00:07:46.467Z,101912.50
2023-05-14T00:10:13.343Z,101920.78
2023-05-14T00:12:40.229Z,101913.22
2023-05-14T00:15:08.877Z,101912.59
2023-05-14T00:17:37.457Z,101913.47
2023-05-14T00:20:07.166Z,101912.25
2023-05-14T00:22:34.281Z,101913.50
2023-05-14T00:25:01.129Z,101910.41
2023-05-14T00:27:28.125Z,101909.19
2023-05-14T00:29:55.001Z,101905.28
2023-05-14T00:32:21.864Z,101907.16
2023-05-14T00:34:50.063Z,101905.72
2023-05-14T00:37:17.005Z,101900.59
2023-05-14T00:39:43.895Z,101899.16
2023-05-14T00:42:10.778Z,101891.75
2023-05-14T00:44:37.671Z,101899.13
2023-05-14T00:47:05.745Z,101899.38
2023-05-14T00:49:32.810Z,101894.00
2023-05-14T00:52:01.122Z,101889.69
2023-05-14T00:54:29.449Z,101895.44
2023-05-14T00:56:56.849Z,101897.91
2023-05-14T00:59:23.759Z,101893.19
2023-05-14T01:01:50.992Z,101897.13
2023-05-14T01:04:18.647Z,101899.81
2023-05-14T01:06:57.563Z,101892.41
2023-05-14T01:09:36.227Z,101894.06
2023-05-14T01:12:09.502Z,101898.78
2023-05-14T01:14:45.377Z,101893.00
2023-05-14T01:17:13.356Z,101888.72
2023-05-14T01:19:43.007Z,101887.28
2023-05-14T01:22:12.357Z,101890.56
2023-05-14T01:24:40.183Z,101890.34
2023-05-14T01:27:15.720Z,101887.66
2023-05-14T01:29:53.141Z,101889.50
2023-05-14T01:32:24.468Z,101889.50
2023-05-14T01:34:55.214Z,101880.69
2023-05-14T01:37:25.892Z,101886.84
2023-05-14T01:39:55.429Z,101872.47
2023-05-14T01:42:23.211Z,101873.47
2023-05-14T01:44:50.440Z,101872.88
2023-05-14T01:47:17.491Z,101875.75
2023-05-14T01:49:44.321Z,101859.28
2023-05-14T01:52:11.989Z,101866.88
2023-05-14T01:54:40.258Z,101861.94
2023-05-14T01:57:07.110Z,101861.72
2023-05-14T01:59:33.949Z,101863.38
2023-05-14T02:02:01.009Z,101860.50
2023-05-14T02:04:28.056Z,101862.56
2023-05-14T02:06:54.900Z,101851.66
2023-05-14T02:09:21.811Z,101854.72
2023-05-14T02:11:49.997Z,101859.66
2023-05-14T02:14:16.842Z,101853.94
2023-05-14T02:16:43.692Z,101846.53
2023-05-14T02:19:11.091Z,101838.75
2023-05-14T02:21:37.999Z,101840.56
2023-05-14T02:24:05.442Z,101833.03
2023-05-14T02:26:32.294Z,101836.53
2023-05-14T02:29:00.550Z,101834.44
2023-05-14T02:31:27.449Z,101823.94
2023-05-14T02:33:54.412Z,101821.88
2023-05-14T02:36:21.298Z,101826.22
2023-05-14T02:38:48.145Z,101833.00
2023-05-14T02:41:14.985Z,101830.53
2023-05-14T02:43:41.832Z,101823.13
2023-05-14T02:46:10.005Z,101833.38
2023-05-14T02:48:36.851Z,101824.53
2023-05-14T02:51:03.875Z,101834.16
2023-05-14T02:53:30.869Z,101830.03
2023-05-14T02:55:57.786Z,101823.66
2023-05-14T02:58:27.733Z,101823.47
2023-05-14T03:00:55.709Z,101823.41
2023-05-14T03:03:24.590Z,101826.69
2023-05-14T03:05:52.069Z,101826.06
2023-05-14T03:08:18.944Z,101817.25
2023-05-14T03:10:45.863Z,101819.50
2023-05-14T03:13:12.810Z,101818.88
2023-05-14T03:15:39.624Z,101821.53
2023-05-14T03:18:06.627Z,101819.28
2023-05-14T03:20:34.894Z,101813.94
2023-05-14T03:23:01.872Z,101817.16
2023-05-14T03:25:28.708Z,101818.38
2023-05-14T03:27:55.572Z,101820.44
2023-05-14T03:30:22.833Z,101822.28
2023-05-14T03:32:50.326Z,101825.31
2023-05-14T03:35:17.762Z,101822.88
2023-05-14T03:37:45.899Z,101829.22
2023-05-14T03:40:13.190Z,101827.59
2023-05-14T03:42:40.019Z,101832.25
2023-05-14T03:45:09.177Z,101832.25
2023-05-14T03:47:36.082Z,101827.13
2023-05-14T03:50:03.438Z,101826.31
2023-05-14T03:52:30.635Z,101828.97
2023-05-14T03:54:58.835Z,101832.25
2023-05-14T03:57:25.711Z,101826.75
2023-05-14T03:59:52.578Z,101833.53
2023-05-14T04:02:19.478Z,101826.16
2023-05-14T04:04:46.366Z,101824.56
2023-05-14T04:07:13.238Z,101821.28
2023-05-14T04:09:40.261Z,101823.38
2023-05-14T04:12:09.473Z,101826.28
2023-05-14T04:14:36.291Z,101819.31
2023-05-14T04:17:03.740Z,101826.53
2023-05-14T04:19:30.632Z,101828.38
2023-05-14T04:21:57.486Z,101832.09
2023-05-14T04:24:24.360Z,101828.81
2023-05-14T04:26:51.209Z,101828.63
2023-05-14T04:29:19.403Z,101825.97
2023-05-14T04:31:46.640Z,101826.19
2023-05-14T04:34:13.590Z,101813.69
2023-05-14T04:36:40.819Z,101820.66
2023-05-14T04:39:09.315Z,101822.50
2023-05-14T04:41:36.700Z,101831.34
2023-05-14T04:44:03.865Z,101827.03
2023-05-14T04:46:32.074Z,101828.09
2023-05-14T04:48:58.933Z,101832.63
2023-05-14T04:51:26.246Z,101833.44
2023-05-14T04:53:53.058Z,101841.25
2023-05-14T04:56:19.996Z,101835.91
2023-05-14T04:58:46.875Z,101842.66
2023-05-14T05:01:13.889Z,101847.38
2023-05-14T05:03:42.194Z,101843.25
2023-05-14T05:06:09.172Z,101850.63
2023-05-14T05:08:36.910Z,101851.63
2023-05-14T05:11:04.453Z,101849.78
2023-05-14T05:13:32.170Z,101845.81
2023-05-14T05:15:59.156Z,101852.56
2023-05-14T05:18:26.209Z,101849.66
2023-05-14T05:20:54.528Z,101850.03
2023-05-14T05:23:21.345Z,101844.88
2023-05-14T05:25:48.227Z,101850.63
2023-05-14T05:28:15.101Z,101839.13
2023-05-14T05:30:42.025Z,101846.31
2023-05-14T05:33:08.969Z,101837.69
2023-05-14T05:35:35.853Z,101842.00
2023-05-14T05:38:04.065Z,101841.41
2023-05-14T05:40:30.963Z,101846.31
2023-05-14T05:42:57.781Z,101845.47
2023-05-14T05:45:24.673Z,101846.84
2023-05-14T05:47:51.640Z,101839.38
2023-05-14T05:50:19.996Z,101839.38
2023-05-14T05:52:47.141Z,101833.75
2023-05-14T05:55:15.625Z,101837.06
2023-05-14T05:57:42.613Z,101839.53
2023-05-14T06:00:13.510Z,101836.41
2023-05-14T06:02:41.700Z,101838.69
2023-05-14T06:05:10.432Z,101843.63
2023-05-14T06:07:37.469Z,101840.53
2023-05-14T06:10:06.330Z,101840.41
2023-05-14T06:12:34.500Z,101851.31
2023-05-14T06:15:01.341Z,101846.13
2023-05-14T06:17:28.258Z,101842.50
2023-05-14T06:19:55.156Z,101847.34
2023-05-14T06:22:22.001Z,101838.22
2023-05-14T06:24:49.077Z,101846.50
2023-05-14T06:27:15.922Z,101853.94
2023-05-14T06:29:44.067Z,101844.25
2023-05-14T06:32:11.799Z,101846.06
2023-05-14T06:34:38.665Z,101851.72
2023-05-14T06:37:06.912Z,101851.72
2023-05-14T06:39:33.815Z,101851.78
2023-05-14T06:42:00.701Z,101854.91
2023-05-14T06:44:27.733Z,101858.06
2023-05-14T06:46:56.336Z,101854.75
2023-05-14T06:49:23.332Z,101852.81
2023-05-14T06:51:50.162Z,101858.34
2023-05-14T06:54:17.091Z,101850.06
2023-05-14T06:56:45.185Z,101856.81
2023-05-14T06:59:12.097Z,101862.06
2023-05-14T07:01:38.990Z,101868.63
2023-05-14T07:04:07.359Z,101857.44
2023-05-14T07:06:34.397Z,101859.69
2023-05-14T07:09:02.351Z,101856.56
2023-05-14T07:11:29.645Z,101857.16
2023-05-14T07:13:56.498Z,101860.56
2023-05-14T07:16:23.362Z,101851.75
2023-05-14T07:18:50.231Z,101851.53
2023-05-14T07:21:18.511Z,101850.88
2023-05-14T07:23:45.585Z,101852.81
2023-05-14T07:26:12.525Z,101853.66
2023-05-14T07:28:39.375Z,101840.94
2023-05-14T07:31:08.913Z,101845.75
2023-05-14T07:33:36.535Z,101840.25
2023-05-14T07:36:03.751Z,101843.03
2023-05-14T07:38:32.608Z,101835.31
2023-05-14T07:40:59.523Z,101835.66
2023-05-14T07:43:26.868Z,101829.31
2023-05-14T07:45:53.779Z,101836.78
2023-05-14T07:48:20.730Z,101837.38
2023-05-14T07:50:48.806Z,101843.56
2023-05-14T07:53:15.736Z,101834.63
2023-05-14T07:55:45.262Z,101833.56
2023-05-14T07:58:12.122Z,101835.22
2023-05-14T08:00:39.057Z,101832.38
2023-05-14T08:03:06.072Z,101830.25
2023-05-14T08:05:33.081Z,101828.06
2023-05-14T08:07:59.938Z,101822.69
2023-05-14T08:10:27.583Z,101828.53
2023-05-14T08:12:56.100Z,101830.56
2023-05-14T08:15:24.540Z,101827.00
2023-05-14T08:17:53.367Z,101823.16
2023-05-14T08:20:20.548Z,101820.81
2023-05-14T08:22:47.441Z,101821.69
2023-05-14T08:25:14.429Z,101817.25
2023-05-14T08:27:41.362Z,101811.38
2023-05-14T08:30:11.052Z,101812.63
2023-05-14T08:32:38.571Z,101815.38
2023-05-14T08:35:06.748Z,101818.63
2023-05-14T08:37:33.712Z,101805.72
2023-05-14T08:40:00.712Z,101801.22
2023-05-14T08:42:29.279Z,101804.38
2023-05-14T08:45:01.982Z,101794.50
2023-05-14T08:47:31.518Z,101793.91
2023-05-14T08:50:06.452Z,101802.09
2023-05-14T08:52:34.801Z,101792.94
2023-05-14T08:55:05.507Z,101793.66
2023-05-14T08:57:34.267Z,101787.06
2023-05-14T09:00:02.311Z,101789.88
2023-05-14T09:02:32.304Z,101789.75
2023-05-14T09:05:01.917Z,101790.75
2023-05-14T09:07:29.056Z,101782.25
2023-05-14T09:09:56.049Z,101782.34
2023-05-14T09:12:23.110Z,101788.78
2023-05-14T09:14:51.014Z,101777.69
2023-05-14T09:17:18.619Z,101775.00
2023-05-14T09:19:49.131Z,101779.53
2023-05-14T09:22:19.778Z,101774.06
2023-05-14T09:25:02.447Z,101776.19
2023-05-14T09:27:31.627Z,101768.00
2023-05-14T09:30:09.386Z,101769.38
2023-05-14T09:32:38.302Z,101768.84
2023-05-14T09:35:17.402Z,101775.78
2023-05-14T09:37:46.609Z,101764.03
2023-05-14T09:40:15.174Z,101769.06
2023-05-14T09:42:42.307Z,101756.69
2023-05-14T09:45:10.451Z,101763.25
2023-05-14T09:47:38.449Z,101751.03
2023-05-14T09:50:08.302Z,101755.22
2023-05-14T09:52:38.292Z,101748.94
2023-05-14T09:55:06.882Z,101744.72
2023-05-14T09:57:34.448Z,101746.97
2023-05-14T10:00:01.386Z,101749.22
2023-05-14T10:02:37.430Z,101739.97
2023-05-14T10:05:06.887Z,101747.00
2023-05-14T10:07:42.482Z,101752.03
2023-05-14T10:10:15.786Z,101741.19
2023-05-14T10:12:52.377Z,101747.75
2023-05-14T10:15:26.630Z,101745.72
2023-05-14T10:17:58.172Z,101738.44
2023-05-14T10:20:27.581Z,101740.97
2023-05-14T10:22:58.645Z,101735.81
2023-05-14T10:25:26.314Z,101729.13
2023-05-14T10:27:54.210Z,101738.06
2023-05-14T10:30:25.306Z,101722.88
2023-05-14T10:33:08.034Z,101725.59
2023-05-14T10:35:57.814Z,101716.38
2023-05-14T10:38:28.863Z,101722.88
2023-05-14T10:41:00.614Z,101716.00
2023-05-14T10:43:30.707Z,101719.25
2023-05-14T10:46:00.418Z,101710.34
2023-05-14T10:48:27.665Z,101713.91
2023-05-14T10:50:57.546Z,101715.41
2023-05-14T10:53:34.587Z,101706.66
2023-05-14T10:56:07.699Z,101708.09
2023-05-14T10:58:39.290Z,101704.34
2023-05-14T11:01:07.602Z,101701.09
2023-05-14T11:03:41.926Z,101696.28
2023-05-14T11:06:10.694Z,101694.94
2023-05-14T11:08:39.716Z,101690.84
2023-05-14T11:11:06.995Z,101690.38
2023-05-14T11:13:34.567Z,101691.72
2023-05-14T11:16:12.003Z,101690.34
2023-05-14T11:18:48.427Z,101689.78
2023-05-14T11:21:17.459Z,101678.38
2023-05-14T11:23:48.625Z,101672.16
2023-05-14T11:26:15.653Z,101666.50
2023-05-14T11:28:42.641Z,101662.91
2023-05-14T11:31:10.230Z,101661.84
2023-05-14T11:33:37.380Z,101665.38
2023-05-14T11:36:05.407Z,101666.97
2023-05-14T11:38:32.305Z,101661.84
2023-05-14T11:41:00.527Z,101662.66
2023-05-14T11:43:29.159Z,101659.97
2023-05-14T11:45:56.527Z,101654.00
2023-05-14T11:48:25.284Z,101658.31
2023-05-14T11:50:53.220Z,101652.34
2023-05-14T11:53:24.512Z,101645.31
2023-05-14T11:55:54.079Z,101649.09
2023-05-14T11:58:22.423Z,101653.94
2023-05-14T12:00:50.890Z,101647.25
2023-05-14T12:03:25.699Z,101641.63
2023-05-14T12:05:57.048Z,101648.75
2023-05-14T12:08:27.626Z,101640.50
2023-05-14T12:10:55.985Z,101635.69
2023-05-14T12:13:27.121Z,101627.94
2023-05-14T12:15:56.487Z,101633.63
2023-05-14T12:18:25.573Z,101632.13
2023-05-14T12:20:52.541Z,101624.66
2023-05-14T12:23:25.981Z,101618.03
2023-05-14T12:25:53.067Z,101626.44
2023-05-14T12:28:20.478Z,101622.81
2023-05-14T12:30:49.347Z,101614.78
2023-05-14T12:33:16.220Z,101609.19
2023-05-14T12:35:43.388Z,101608.13
2023-05-14T12:38:10.617Z,101621.03
2023-05-14T12:40:37.537Z,101603.50
2023-05-14T12:43:04.367Z,101599.69
2023-05-14T12:45:31.621Z,101594.41
2023-05-14T12:47:59.876Z,101596.84
2023-05-14T12:50:27.072Z,101584.19
2023-05-14T12:52:54.121Z,101583.31
2023-05-14T12:55:21.420Z,101577.25
2023-05-14T12:57:48.328Z,101586.56
2023-05-14T13:00:15.945Z,101578.63
2023-05-14T13:02:43.978Z,101570.25
2023-05-14T13:05:12.742Z,101578.66
2023-05-14T13:07:39.992Z,101573.16
2023-05-14T13:10:08.390Z,101565.81
2023-05-14T13:12:35.439Z,101558.00
2023-05-14T13:15:02.479Z,101557.31
2023-05-14T13:17:31.615Z,101548.72
2023-05-14T13:19:58.494Z,101544.56
2023-05-14T13:22:26.774Z,101546.56
2023-05-14T13:24:53.678Z,101544.50
2023-05-14T13:27:20.672Z,101544.78
2023-05-14T13:29:47.519Z,101540.81
2023-05-14T13:32:14.342Z,101528.53
2023-05-14T13:34:41.166Z,101532.78
2023-05-14T13:37:08.070Z,101527.41
2023-05-14T13:39:36.232Z,101525.53
2023-05-14T13:42:03.478Z,101527.41
2023-05-14T13:44:30.451Z,101532.84
2023-05-14T13:46:57.480Z,101525.28
2023-05-14T13:49:24.342Z,101524.59
2023-05-14T13:51:51.187Z,101518.38
2023-05-14T13:54:18.409Z,101511.75
2023-05-14T13:56:46.582Z,101515.38
2023-05-14T13:59:13.612Z,101506.38
2023-05-14T14:01:40.553Z,101505.06
2023-05-14T14:04:07.516Z,101502.94
2023-05-14T14:06:34.475Z,101514.75
2023-05-14T14:09:01.716Z,101516.41
2023-05-14T14:11:28.786Z,101509.59
2023-05-14T14:13:56.925Z,101500.59
2023-05-14T14:16:23.799Z,101506.72
2023-05-14T14:18:50.694Z,101504.66
2023-05-14T14:21:18.396Z,101505.66
2023-05-14T14:23:46.581Z,101506.84
2023-05-14T14:26:13.537Z,101496.06
2023-05-14T14:28:40.513Z,101494.69
2023-05-14T14:31:08.881Z,101490.91
2023-05-14T14:33:35.873Z,101486.47
2023-05-14T14:36:02.770Z,101489.31
2023-05-14T14:38:29.698Z,101487.75
2023-05-14T14:40:57.450Z,101482.41
2023-05-14T14:43:24.700Z,101478.66
2023-05-14T14:45:51.587Z,101479.78
2023-05-14T14:48:28.505Z,101481.16
2023-05-14T14:50:55.796Z,101480.09
2023-05-14T14:53:24.402Z,101480.69
2023-05-14T14:55:52.063Z,101481.28
2023-05-14T14:58:20.313Z,101476.16
2023-05-14T15:00:48.261Z,101481.63
2023-05-14T15:03:15.674Z,101479.47
2023-05-14T15:05:43.977Z,101476.78
2023-05-14T15:08:11.058Z,101467.03
2023-05-14T15:10:38.455Z,101475.16
2023-05-14T15:13:07.460Z,101469.22
2023-05-14T15:15:36.021Z,101464.94
2023-05-14T15:18:04.372Z,101463.84
2023-05-14T15:20:31.418Z,101460.59
2023-05-14T15:22:59.707Z,101454.63
2023-05-14T15:25:27.235Z,101460.56
2023-05-14T15:27:54.139Z,101451.91
2023-05-14T15:30:21.050Z,101453.50
2023-05-14T15:32:48.241Z,101457.03
2023-05-14T15:35:15.519Z,101453.78
2023-05-14T15:37:44.673Z,101456.75
2023-05-14T15:40:13.461Z,101449.19
2023-05-14T15:42:43.435Z,101444.03
2023-05-14T15:45:12.929Z,101445.41
2023-05-14T15:47:41.008Z,101444.88
2023-05-14T15:50:09.136Z,101437.28
2023-05-14T15:52:36.420Z,101442.47
2023-05-14T15:55:05.949Z,101438.09
2023-05-14T15:57:34.285Z,101443.50
2023-05-14T16:00:01.239Z,101439.44
2023-05-14T16:02:30.366Z,101435.06
2023-05-14T16:04:57.394Z,101436.69
2023-05-14T16:07:24.323Z,101441.00
2023-05-14T16:09:51.687Z,101435.03
2023-05-14T16:12:18.657Z,101441.50
2023-05-14T16:14:46.928Z,101459.31
2023-05-14T16:17:14.064Z,101454.72
2023-05-14T16:19:41.281Z,101471.28
2023-05-14T16:22:08.300Z,101468.91
2023-05-14T16:24:35.198Z,101461.06
2023-05-14T16:27:02.127Z,101457.34
2023-05-14T16:29:29.076Z,101458.19
2023-05-14T16:31:58.268Z,101463.88
2023-05-14T16:34:25.161Z,101449.78
2023-05-14T16:36:52.070Z,101455.75
2023-05-14T16:39:19.274Z,101449.19
2023-05-14T16:41:46.125Z,101452.97
2023-05-14T16:44:12.975Z,101454.56
2023-05-14T16:46:39.917Z,101456.38
2023-05-14T16:49:08.172Z,101445.81
2023-05-14T16:51:36.450Z,101452.75
2023-05-14T16:54:04.007Z,101455.41
2023-05-14T16:56:32.290Z,101451.88
2023-05-14T16:58:59.171Z,101451.53
2023-05-14T17:01:26.123Z,101459.63
2023-05-14T17:03:52.954Z,101462.28
2023-05-14T17:06:21.154Z,101456.31
2023-05-14T17:08:48.164Z,101450.34
2023-05-14T17:11:15.175Z,101451.34
2023-05-14T17:13:42.234Z,101450.72
2023-05-14T17:16:09.097Z,101446.38
2023-05-14T17:18:36.079Z,101439.84
2023-05-14T17:21:04.733Z,101443.88
2023-05-14T17:23:33.031Z,101438.16
2023-05-14T17:25:59.929Z,101441.91
2023-05-14T17:28:28.306Z,101440.31
2023-05-14T17:30:55.338Z,101444.06
2023-05-14T17:33:22.511Z,101435.94
2023-05-14T17:35:49.547Z,101429.16
2023-05-14T17:38:17.082Z,101436.47
2023-05-14T17:40:45.291Z,101426.19
2023-05-14T17:43:12.426Z,101420.47
2023-05-14T17:45:53.320Z,101427.78
2023-05-14T17:48:22.187Z,101422.34
2023-05-14T17:50:49.127Z,101425.53
2023-05-14T17:53:16.008Z,101431.19
2023-05-14T17:55:45.460Z,101435.22
2023-05-14T17:58:15.815Z,101433.28
2023-05-14T18:00:43.542Z,101437.31
2023-05-14T18:03:11.145Z,101444.81
2023-05-14T18:05:38.077Z,101433.97
2023-05-14T18:08:05.613Z,101429.84
2023-05-14T18:10:32.683Z,101433.81
2023-05-14T18:12:59.634Z,101438.59
2023-05-14T18:15:27.940Z,101435.56
2023-05-14T18:17:55.018Z,101434.13
2023-05-14T18:20:22.050Z,101436.75
2023-05-14T18:22:50.456Z,101425.91
2023-05-14T18:25:17.502Z,101433.66
2023-05-14T18:27:45.233Z,101438.22
2023-05-14T18:30:16.652Z,101433.56
2023-05-14T18:32:45.205Z,101434.53
2023-05-14T18:35:13.561Z,101426.38
2023-05-14T18:37:40.898Z,101429.84
2023-05-14T18:40:09.350Z,101432.44
2023-05-14T18:42:36.362Z,101437.22
2023-05-14T18:45:04.039Z,101430.16
2023-05-14T18:47:32.335Z,101433.03
2023-05-14T18:50:01.908Z,101440.19
2023-05-14T18:52:29.815Z,101438.75
2023-05-14T18:54:56.760Z,101435.41
2023-05-14T18:57:23.933Z,101436.16
2023-05-14T18:59:50.828Z,101437.13
2023-05-14T19:02:17.805Z,101435.97
2023-05-14T19:04:52.193Z,101438.56
2023-05-14T19:07:22.125Z,101439.56
2023-05-14T19:09:49.214Z,101438.09
2023-05-14T19:12:16.343Z,101438.25
2023-05-14T19:14:43.303Z,101438.75
2023-05-14T19:17:10.914Z,101438.44
2023-05-14T19:19:39.139Z,101439.94
2023-05-14T19:22:06.868Z,101440.69
2023-05-14T19:24:37.658Z,101437.44
2023-05-14T19:27:05.226Z,101442.81
2023-05-14T19:29:36.566Z,101440.69
2023-05-14T19:32:04.621Z,101435.31
2023-05-14T19:34:31.573Z,101443.38
2023-05-14T19:36:58.531Z,101450.13
2023-05-14T19:39:25.455Z,101449.31
2023-05-14T19:41:53.606Z,101441.03
2023-05-14T19:44:20.772Z,101440.22
2023-05-14T19:46:48.290Z,101438.56
2023-05-14T19:49:15.172Z,101442.34
2023-05-14T19:51:42.108Z,101439.06
2023-05-14T19:54:09.857Z,101442.81
2023-05-14T19:56:38.187Z,101443.78
2023-05-14T19:59:06.798Z,101439.06
2023-05-14T20:01:34.712Z,101443.97
2023-05-14T20:04:02.222Z,101438.72
2023-05-14T20:06:29.201Z,101439.47
2023-05-14T20:08:56.201Z,101436.69
2023-05-14T20:11:23.183Z,101440.56
2023-05-14T20:13:50.321Z,101431.59
2023-05-14T20:16:18.892Z,101429.88
2023-05-14T20:18:46.015Z,101439.22
2023-05-14T20:21:13.073Z,101439.22
2023-05-14T20:23:41.883Z,101430.59
2023-05-14T20:26:08.882Z,101438.88
2023-05-14T20:28:35.752Z,101441.00
2023-05-14T20:31:03.951Z,101437.72
2023-05-14T20:33:32.304Z,101441.47
2023-05-14T20:35:59.303Z,101443.34
2023-05-14T20:38:29.114Z,101433.16
2023-05-14T20:40:56.094Z,101438.53
2023-05-14T20:43:23.193Z,101431.88
2023-05-14T20:45:50.200Z,101437.81
2023-05-14T20:48:17.544Z,101433.03
2023-05-14T20:50:46.213Z,101439.22
2023-05-14T20:53:13.174Z,101430.94
2023-05-14T20:55:41.196Z,101425.31
2023-05-14T20:58:08.554Z,101421.81
2023-05-14T21:00:35.556Z,101416.91
2023-05-14T21:03:02.717Z,101414.94
2023-05-14T21:05:29.742Z,101414.63
2023-05-14T21:07:59.734Z,101418.03
2023-05-14T21:10:26.852Z,101420.34
2023-05-14T21:12:53.980Z,101420.34
2023-05-14T21:15:21.022Z,101409.88
2023-05-14T21:17:47.976Z,101415.44
2023-05-14T21:20:15.563Z,101407.91
2023-05-14T21:22:42.546Z,101395.75
2023-05-14T21:25:11.047Z,101401.84
2023-05-14T21:27:38.082Z,101397.41
2023-05-14T21:30:07.989Z,101402.63
2023-05-14T21:32:34.990Z,101390.75
2023-05-14T21:35:01.850Z,101397.66
2023-05-14T21:37:28.894Z,101401.84
2023-05-14T21:39:55.745Z,101399.41
2023-05-14T21:42:24.023Z,101390.44
2023-05-14T21:44:50.927Z,101390.44
2023-05-14T21:47:18.011Z,101388.81
2023-05-14T21:49:45.005Z,101386.69
2023-05-14T21:52:11.911Z,101385.66
2023-05-14T21:54:38.798Z,101383.78
2023-05-14T21:57:06.371Z,101377.63
2023-05-14T21:59:36.905Z,101386.13
2023-05-14T22:02:07.256Z,101375.84
2023-05-14T22:04:35.116Z,101376.31
2023-05-14T22:07:02.356Z,101378.44
2023-05-14T22:09:30.227Z,101374.13
2023-05-14T22:11:57.306Z,101376.22
2023-05-14T22:14:26.338Z,101367.00
2023-05-14T22:16:54.686Z,101369.69
2023-05-14T22:19:22.255Z,101366.44
2023-05-14T22:21:49.114Z,101367.25
2023-05-14T22:24:16.060Z,101363.75
2023-05-14T22:26:42.956Z,101367.47
2023-05-14T22:29:09.845Z,101363.19
2023-05-14T22:31:36.859Z,101365.28
2023-05-14T22:34:05.110Z,101365.50
2023-05-14T22:36:31.987Z,101354.19
2023-05-14T22:38:58.886Z,101352.22
2023-05-14T22:41:26.608Z,101343.25
2023-05-14T22:43:53.460Z,101348.28
2023-05-14T22:46:21.028Z,101343.38
2023-05-14T22:48:49.048Z,101333.94
2023-05-14T22:51:17.766Z,101333.72
2023-05-14T22:53:45.359Z,101330.44
2023-05-14T22:56:12.325Z,101331.94
2023-05-14T22:58:39.186Z,101329.94
2023-05-14T23:01:06.121Z,101339.72
2023-05-14T23:03:33.042Z,101333.66
2023-05-14T23:05:59.931Z,101334.59
2023-05-14T23:08:28.141Z,101326.44
2023-05-14T23:10:54.981Z,101326.78
2023-05-14T23:13:21.892Z,101328.53
2023-05-14T23:15:48.832Z,101330.28
2023-05-14T23:18:15.851Z,101322.13
2023-05-14T23:20:42.747Z,101316.41
2023-05-14T23:23:09.570Z,101319.78
2023-05-14T23:25:38.063Z,101313.25
2023-05-14T23:28:05.015Z,101311.03
2023-05-14T23:30:31.970Z,101306.97
2023-05-14T23:32:58.909Z,101302.63
2023-05-14T23:35:26.064Z,101305.06
2023-05-14T23:37:55.036Z,101304.03
2023-05-14T23:40:21.941Z,101297.66
2023-05-14T23:42:50.583Z,101297.16
2023-05-14T23:45:17.858Z,101294.50
2023-05-14T23:47:44.974Z,101293.00
2023-05-14T23:50:11.925Z,101277.72
2023-05-14T23:52:38.754Z,101287.41
2023-05-14T23:55:06.793Z,101283.69
2023-05-14T23:57:33.730Z,101274.34
